Time;durP1;ratioP1;P1;durP2;ratioP2;P2;SDS_P1;SDS_P2;PMS_P1;PMS_P2;Temp;Humidity;BMP_temperature;BMP_pressure;BME280_temperature;BME280_humidity;BME280_pressure;Samples;Min_cycle;Max_cycle;Signal;HPM_P1;HPM_P2
2021/12/25 00:00:51;;;;;;;159.53;84.07;;;;;;;;;;5022939;28;20421;-78
2021/12/25 00:03:18;;;;;;;163.03;86.93;;;;;;;;;;5025199;28;20460;-77
2021/12/25 00:05:45;;;;;;;164.27;84.17;;;;;;;;;;5009710;28;20512;-78
2021/12/25 00:08:11;;;;;;;152.97;82.23;;;;;;;;;;5024132;28;20540;-78
2021/12/25 00:10:38;;;;;;;162.90;84.33;;;;;;;;;;5026399;28;20426;-78
2021/12/25 00:13:04;;;;;;;151.60;80.30;;;;;;;;;;5010788;28;20478;-78
2021/12/25 00:15:30;;;;;;;155.13;81.63;;;;;;;;;;5022892;28;20452;-78
2021/12/25 00:17:57;;;;;;;161.73;83.93;;;;;;;;;;5024875;28;20430;-78
2021/12/25 00:20:23;;;;;;;159.53;80.67;;;;;;;;;;5025465;28;20423;-77
2021/12/25 00:22:49;;;;;;;151.87;81.63;;;;;;;;;;5024888;28;20482;-77
2021/12/25 00:25:16;;;;;;;164.23;84.90;;;;;;;;;;5007837;28;20622;-77
2021/12/25 00:30:46;;;;;;;168.07;85.13;;;;;;;;;;4971964;28;21231;-78
2021/12/25 00:35:56;;;;;;;172.50;86.53;;;;;;;;;;5028698;28;21418;-78
2021/12/25 00:38:23;;;;;;;170.60;87.57;;;;;;;;;;5014981;28;20427;-77
2021/12/25 00:40:49;;;;;;;171.60;88.80;;;;;;;;;;5027398;28;20469;-77
2021/12/25 00:43:15;;;;;;;177.77;92.33;;;;;;;;;;5026146;28;21037;-78
2021/12/25 00:45:41;;;;;;;167.90;86.13;;;;;;;;;;5025098;28;20525;-78
2021/12/25 00:48:07;;;;;;;162.80;84.23;;;;;;;;;;5025122;28;20510;-77
2021/12/25 00:50:33;;;;;;;161.53;83.53;;;;;;;;;;5027225;28;20426;-77
2021/12/25 00:52:59;;;;;;;162.93;84.73;;;;;;;;;;5025123;28;20430;-77
2021/12/25 00:55:26;;;;;;;183.87;95.23;;;;;;;;;;5025632;28;20426;-77
2021/12/25 00:57:52;;;;;;;163.10;88.00;;;;;;;;;;5012467;28;20429;-78
2021/12/25 01:00:18;;;;;;;165.83;87.83;;;;;;;;;;5025441;28;20468;-78
2021/12/25 01:02:45;;;;;;;164.27;84.87;;;;;;;;;;5026483;28;21308;-77
2021/12/25 01:05:12;;;;;;;172.90;91.37;;;;;;;;;;5010689;28;20429;-77
2021/12/25 01:07:38;;;;;;;162.93;86.93;;;;;;;;;;5013526;28;21261;-77
2021/12/25 01:10:09;;;;;;;158.87;83.20;;;;;;;;;;5026899;28;21269;-77
2021/12/25 01:15:26;;;;;;;173.67;91.47;;;;;;;;;;5022266;28;21307;-77
2021/12/25 01:20:45;;;;;;;159.47;84.30;;;;;;;;;;5027387;28;21498;-77
2021/12/25 01:23:47;;;;;;;174.07;87.93;;;;;;;;;;5029965;28;20527;-77
2021/12/25 01:37:07;;;;;;;173.27;89.47;;;;;;;;;;5024874;28;20846;-77
2021/12/25 01:50:10;;;;;;;170.90;86.03;;;;;;;;;;5028439;28;20464;-76
2021/12/25 01:52:37;;;;;;;172.37;85.60;;;;;;;;;;5026254;28;20427;-76
2021/12/25 01:55:07;;;;;;;172.23;85.83;;;;;;;;;;5025721;28;20816;-76
2021/12/25 01:57:33;;;;;;;170.13;87.47;;;;;;;;;;5026355;28;20415;-76
2021/12/25 02:00:00;;;;;;;167.80;88.97;;;;;;;;;;5026779;28;20414;-76
2021/12/25 02:02:27;;;;;;;173.27;87.40;;;;;;;;;;5021345;28;20950;-76
2021/12/25 02:04:53;;;;;;;168.13;87.17;;;;;;;;;;5021636;28;20471;-75
2021/12/25 02:07:19;;;;;;;161.57;84.83;;;;;;;;;;5024410;28;20422;-75
2021/12/25 02:09:46;;;;;;;153.63;83.07;;;;;;;;;;5024342;28;20418;-75
2021/12/25 02:12:14;;;;;;;184.23;89.00;;;;;;;;;;5026210;28;20584;-75
2021/12/25 02:14:43;;;;;;;162.87;85.40;;;;;;;;;;5025098;28;20470;-75
2021/12/25 02:17:19;;;;;;;188.53;91.10;;;;;;;;;;5011793;28;21314;-75
2021/12/25 02:19:54;;;;;;;174.13;88.10;;;;;;;;;;5025189;28;20414;-75
2021/12/25 02:22:25;;;;;;;172.90;87.60;;;;;;;;;;5011635;28;21348;-75
2021/12/25 02:24:51;;;;;;;172.63;89.97;;;;;;;;;;5025310;28;20414;-75
2021/12/25 02:27:17;;;;;;;175.53;90.73;;;;;;;;;;5024804;28;21417;-75
2021/12/25 02:29:43;;;;;;;172.97;89.80;;;;;;;;;;5012272;28;20427;-75
2021/12/25 02:32:09;;;;;;;179.23;91.30;;;;;;;;;;5025817;28;20565;-75
2021/12/25 02:34:36;;;;;;;158.83;84.17;;;;;;;;;;5025604;28;21394;-75
2021/12/25 02:37:02;;;;;;;165.47;84.53;;;;;;;;;;5031271;28;20420;-76
2021/12/25 02:39:28;;;;;;;167.27;86.40;;;;;;;;;;5010195;28;20414;-75
2021/12/25 02:41:54;;;;;;;156.47;83.97;;;;;;;;;;5023844;28;20423;-75
2021/12/25 02:44:20;;;;;;;153.87;82.57;;;;;;;;;;5026095;28;21220;-75
2021/12/25 02:46:48;;;;;;;173.53;90.17;;;;;;;;;;5021678;28;20415;-75
2021/12/25 02:49:14;;;;;;;167.53;85.93;;;;;;;;;;5025512;28;20443;-75
2021/12/25 02:51:44;;;;;;;146.40;80.63;;;;;;;;;;5024163;28;20430;-76
2021/12/25 02:54:10;;;;;;;164.07;86.03;;;;;;;;;;5020640;28;20532;-76
2021/12/25 02:56:36;;;;;;;161.83;83.17;;;;;;;;;;5025050;28;20416;-76
2021/12/25 02:59:02;;;;;;;175.53;89.10;;;;;;;;;;5010263;28;21083;-76
2021/12/25 03:01:29;;;;;;;174.63;89.83;;;;;;;;;;5023214;28;20426;-76
2021/12/25 03:03:55;;;;;;;157.57;81.67;;;;;;;;;;5008813;28;21203;-76
2021/12/25 03:06:23;;;;;;;164.83;85.07;;;;;;;;;;5007778;28;20514;-77
2021/12/25 03:08:49;;;;;;;147.37;79.50;;;;;;;;;;5009176;28;20442;-76
2021/12/25 03:11:15;;;;;;;151.93;80.90;;;;;;;;;;5027765;28;20510;-76
2021/12/25 03:16:09;;;;;;;151.43;79.93;;;;;;;;;;5022504;28;20501;-76
2021/12/25 03:18:41;;;;;;;145.77;78.30;;;;;;;;;;5023774;28;20426;-76
2021/12/25 03:21:08;;;;;;;147.37;78.10;;;;;;;;;;5006344;28;21326;-76
2021/12/25 03:23:36;;;;;;;142.23;77.53;;;;;;;;;;5012089;28;20526;-76
2021/12/25 03:26:03;;;;;;;141.67;75.87;;;;;;;;;;5009852;28;21239;-77
2021/12/25 03:28:31;;;;;;;146.73;78.93;;;;;;;;;;5025845;28;20407;-76
2021/12/25 03:31:03;;;;;;;135.23;74.83;;;;;;;;;;5007300;28;20419;-76
2021/12/25 03:33:30;;;;;;;148.47;77.60;;;;;;;;;;5025141;28;20445;-76
2021/12/25 03:35:56;;;;;;;132.50;72.27;;;;;;;;;;5021858;28;20433;-76
2021/12/25 03:38:22;;;;;;;140.67;72.93;;;;;;;;;;5011398;28;20415;-76
2021/12/25 03:40:50;;;;;;;137.47;70.43;;;;;;;;;;5011155;28;21033;-76
2021/12/25 03:43:17;;;;;;;139.57;73.10;;;;;;;;;;5006985;28;20450;-76
2021/12/25 03:45:43;;;;;;;129.27;70.07;;;;;;;;;;5009882;28;20421;-76
2021/12/25 03:53:37;;;;;;;129.63;68.73;;;;;;;;;;5029264;28;20500;-76
2021/12/25 03:58:48;;;;;;;129.47;67.90;;;;;;;;;;5026667;28;20418;-76
2021/12/25 04:04:05;;;;;;;130.97;67.73;;;;;;;;;;5022799;28;20606;-76
2021/12/25 04:06:32;;;;;;;127.77;67.10;;;;;;;;;;5009477;28;21342;-76
2021/12/25 04:08:58;;;;;;;127.47;66.77;;;;;;;;;;5025219;28;20414;-77
2021/12/25 04:11:32;;;;;;;125.03;67.33;;;;;;;;;;5016068;28;20480;-76
2021/12/25 04:13:58;;;;;;;127.43;66.70;;;;;;;;;;5013442;28;20826;-76
2021/12/25 04:16:26;;;;;;;125.97;66.00;;;;;;;;;;5026880;28;20426;-76
2021/12/25 04:18:52;;;;;;;113.70;61.93;;;;;;;;;;5025608;28;20580;-76
2021/12/25 04:21:18;;;;;;;123.90;68.77;;;;;;;;;;5011397;28;20426;-76
2021/12/25 04:23:45;;;;;;;125.73;66.80;;;;;;;;;;5026214;28;20574;-76
2021/12/25 04:26:12;;;;;;;134.93;66.83;;;;;;;;;;5012446;28;20485;-76
2021/12/25 05:04:01;;;;;;;136.07;70.37;;;;;;;;;;5028865;28;20501;-76
2021/12/25 05:06:27;;;;;;;124.47;69.67;;;;;;;;;;5008476;28;20513;-76
2021/12/25 05:08:54;;;;;;;133.27;69.93;;;;;;;;;;5008718;28;20529;-76
2021/12/25 05:11:20;;;;;;;128.23;69.57;;;;;;;;;;5026648;28;20415;-76
2021/12/25 05:13:49;;;;;;;130.03;70.20;;;;;;;;;;5029757;28;20430;-76
2021/12/25 05:16:15;;;;;;;142.07;73.37;;;;;;;;;;5023785;28;20424;-76
2021/12/25 05:18:41;;;;;;;145.93;73.73;;;;;;;;;;5026095;28;20423;-76
2021/12/25 05:21:08;;;;;;;140.07;72.80;;;;;;;;;;5013048;28;20430;-76
2021/12/25 05:23:35;;;;;;;130.17;68.03;;;;;;;;;;5024459;28;20567;-76
2021/12/25 05:26:01;;;;;;;126.73;67.60;;;;;;;;;;5030010;28;20441;-76
2021/12/25 05:28:35;;;;;;;131.70;69.83;;;;;;;;;;5011498;28;20423;-76
2021/12/25 05:31:01;;;;;;;138.20;70.83;;;;;;;;;;5005048;28;20430;-77
2021/12/25 05:33:27;;;;;;;132.53;69.60;;;;;;;;;;5023385;28;20427;-76
2021/12/25 05:35:53;;;;;;;128.77;67.50;;;;;;;;;;5029971;28;20455;-76
2021/12/25 05:38:19;;;;;;;128.03;66.17;;;;;;;;;;5025809;28;20423;-76
2021/12/25 05:40:47;;;;;;;135.70;70.10;;;;;;;;;;5026520;28;20423;-76
2021/12/25 05:43:13;;;;;;;128.00;68.07;;;;;;;;;;5026170;28;20471;-76
2021/12/25 05:45:39;;;;;;;134.27;69.17;;;;;;;;;;5023774;28;20433;-76
2021/12/25 05:48:06;;;;;;;133.80;68.47;;;;;;;;;;5025253;28;21364;-77
2021/12/25 05:50:32;;;;;;;135.80;69.10;;;;;;;;;;5010331;28;20448;-77
2021/12/25 05:52:58;;;;;;;120.30;65.33;;;;;;;;;;5027344;28;20427;-77
2021/12/25 05:55:24;;;;;;;125.53;65.93;;;;;;;;;;5025625;28;20430;-76
2021/12/25 05:57:50;;;;;;;122.77;64.83;;;;;;;;;;5026523;28;21226;-77
2021/12/25 06:00:17;;;;;;;135.03;67.43;;;;;;;;;;5026708;28;20423;-76
2021/12/25 06:02:43;;;;;;;130.50;66.33;;;;;;;;;;5026135;28;21390;-76
2021/12/25 06:05:10;;;;;;;134.30;67.13;;;;;;;;;;5009538;28;20454;-76
2021/12/25 06:07:36;;;;;;;123.83;65.60;;;;;;;;;;5025653;28;20505;-76
2021/12/25 06:10:04;;;;;;;125.33;64.87;;;;;;;;;;5028118;28;20404;-75
2021/12/25 06:12:32;;;;;;;119.93;63.00;;;;;;;;;;5028517;28;20438;-76
2021/12/25 06:15:01;;;;;;;114.03;60.07;;;;;;;;;;5008525;28;20419;-76
2021/12/25 06:17:27;;;;;;;125.70;62.80;;;;;;;;;;5024383;28;20565;-77
2021/12/25 06:19:54;;;;;;;124.67;64.27;;;;;;;;;;5012858;28;20988;-76
2021/12/25 06:22:20;;;;;;;113.63;60.77;;;;;;;;;;5010036;28;20454;-76
2021/12/25 06:24:49;;;;;;;123.07;63.80;;;;;;;;;;5024313;28;20488;-78
2021/12/25 06:27:20;;;;;;;112.20;59.90;;;;;;;;;;5010227;28;20438;-78
2021/12/25 06:29:46;;;;;;;124.40;65.37;;;;;;;;;;5008418;28;20542;-77
2021/12/25 06:32:12;;;;;;;116.03;63.63;;;;;;;;;;5012168;28;22048;-77
2021/12/25 06:34:38;;;;;;;126.97;64.87;;;;;;;;;;5028081;28;20492;-78
2021/12/25 06:37:04;;;;;;;120.17;62.10;;;;;;;;;;5024766;28;20426;-78
2021/12/25 06:39:31;;;;;;;131.30;68.20;;;;;;;;;;5009026;28;20430;-77
2021/12/25 06:41:57;;;;;;;130.43;65.90;;;;;;;;;;5026065;28;20426;-78
2021/12/25 06:44:24;;;;;;;117.77;62.37;;;;;;;;;;5025142;28;21262;-77
2021/12/25 06:46:51;;;;;;;121.00;63.77;;;;;;;;;;5010835;28;20423;-78
2021/12/25 06:49:17;;;;;;;123.37;66.00;;;;;;;;;;5011572;28;20418;-78
2021/12/25 06:51:44;;;;;;;134.73;69.10;;;;;;;;;;5027574;28;20435;-77
2021/12/25 06:54:17;;;;;;;130.27;66.03;;;;;;;;;;5016948;28;20473;-79
2021/12/25 06:56:44;;;;;;;117.10;62.93;;;;;;;;;;5023577;28;20432;-78
2021/12/25 06:59:11;;;;;;;114.57;61.90;;;;;;;;;;5023219;28;20431;-78
2021/12/25 07:01:37;;;;;;;126.30;66.73;;;;;;;;;;5028482;28;20418;-78
2021/12/25 07:04:04;;;;;;;119.97;62.67;;;;;;;;;;5027017;28;20535;-78
2021/12/25 07:06:30;;;;;;;128.67;66.03;;;;;;;;;;5024319;28;20414;-79
2021/12/25 07:08:56;;;;;;;130.33;67.67;;;;;;;;;;5028651;28;20962;-78
2021/12/25 07:11:22;;;;;;;120.87;64.13;;;;;;;;;;5027432;28;20415;-78
2021/12/25 07:13:51;;;;;;;124.20;64.23;;;;;;;;;;5025339;28;20436;-78
2021/12/25 07:16:17;;;;;;;124.90;63.87;;;;;;;;;;5024185;28;20453;-79
2021/12/25 07:18:43;;;;;;;128.07;65.80;;;;;;;;;;5023836;28;20410;-78
2021/12/25 07:21:09;;;;;;;129.07;66.73;;;;;;;;;;5010555;28;20508;-79
2021/12/25 07:23:35;;;;;;;137.67;72.33;;;;;;;;;;5025025;28;20455;-78
2021/12/25 07:26:01;;;;;;;118.73;63.93;;;;;;;;;;5009192;28;20572;-78
2021/12/25 07:28:31;;;;;;;132.00;68.23;;;;;;;;;;5005947;28;20406;-79
2021/12/25 07:31:00;;;;;;;122.43;64.93;;;;;;;;;;5007620;28;21279;-79
2021/12/25 07:33:26;;;;;;;139.37;70.37;;;;;;;;;;5027917;28;21119;-78
2021/12/25 07:35:53;;;;;;;127.10;67.00;;;;;;;;;;5027588;28;20418;-78
2021/12/25 07:38:20;;;;;;;128.90;66.50;;;;;;;;;;5025278;28;21267;-78
2021/12/25 07:40:46;;;;;;;124.00;65.10;;;;;;;;;;5010652;28;20422;-79
2021/12/25 07:43:12;;;;;;;131.83;68.30;;;;;;;;;;5027429;28;20555;-78
2021/12/25 07:45:38;;;;;;;125.87;68.77;;;;;;;;;;5023639;28;20422;-79
2021/12/25 07:48:05;;;;;;;129.97;68.30;;;;;;;;;;5027589;28;21269;-78
2021/12/25 07:50:32;;;;;;;128.97;67.30;;;;;;;;;;5026601;28;20989;-79
2021/12/25 07:52:58;;;;;;;130.53;68.30;;;;;;;;;;5025454;28;20434;-79
2021/12/25 07:55:27;;;;;;;138.00;69.83;;;;;;;;;;5012050;28;20462;-79
2021/12/25 07:57:54;;;;;;;126.77;66.73;;;;;;;;;;5024115;28;20541;-78
2021/12/25 08:00:20;;;;;;;132.07;68.23;;;;;;;;;;5013534;28;21409;-79
2021/12/25 08:02:46;;;;;;;127.10;67.47;;;;;;;;;;5026159;28;20446;-79
2021/12/25 08:05:12;;;;;;;131.00;70.40;;;;;;;;;;5026122;28;20415;-79
2021/12/25 08:07:39;;;;;;;147.23;74.77;;;;;;;;;;5024160;28;21238;-79
2021/12/25 08:10:13;;;;;;;137.53;73.13;;;;;;;;;;5028964;28;21233;-78
2021/12/25 08:12:43;;;;;;;142.47;73.53;;;;;;;;;;5023803;28;20422;-79
2021/12/25 08:15:10;;;;;;;135.03;72.73;;;;;;;;;;5023835;28;20419;-78
2021/12/25 08:17:36;;;;;;;132.40;71.17;;;;;;;;;;5026591;28;20417;-78
2021/12/25 08:20:03;;;;;;;134.57;72.63;;;;;;;;;;5025938;28;20423;-79
2021/12/25 08:22:29;;;;;;;129.77;69.03;;;;;;;;;;5013264;28;20402;-78
2021/12/25 08:24:55;;;;;;;135.13;72.27;;;;;;;;;;5024275;28;21267;-79
2021/12/25 08:27:21;;;;;;;134.03;71.57;;;;;;;;;;5012548;28;20406;-79
2021/12/25 08:29:47;;;;;;;131.40;68.33;;;;;;;;;;5024931;28;20438;-79
2021/12/25 08:32:13;;;;;;;146.87;76.03;;;;;;;;;;5013500;28;20406;-79
2021/12/25 08:34:40;;;;;;;128.90;70.90;;;;;;;;;;5014864;28;20418;-79
2021/12/25 08:37:07;;;;;;;135.63;73.63;;;;;;;;;;5025500;28;20418;-78
2021/12/25 08:39:33;;;;;;;137.47;72.50;;;;;;;;;;5023319;28;20433;-78
2021/12/25 08:42:04;;;;;;;132.97;71.93;;;;;;;;;;5022748;28;20447;-78
2021/12/25 08:46:59;;;;;;;142.20;74.33;;;;;;;;;;5024972;28;20425;-79
2021/12/25 08:49:28;;;;;;;134.07;72.83;;;;;;;;;;5023332;28;20428;-81
2021/12/25 08:51:55;;;;;;;138.90;73.80;;;;;;;;;;5028449;28;20411;-81
2021/12/25 08:54:21;;;;;;;129.83;71.37;;;;;;;;;;5007618;28;21365;-81
2021/12/25 08:56:50;;;;;;;137.53;73.83;;;;;;;;;;5026325;28;20411;-81
2021/12/25 08:59:16;;;;;;;145.73;75.00;;;;;;;;;;5012119;28;20419;-80
2021/12/25 09:01:43;;;;;;;149.47;80.07;;;;;;;;;;5031007;28;20453;-81
2021/12/25 09:04:09;;;;;;;141.50;73.97;;;;;;;;;;5024836;28;20443;-80
2021/12/25 09:06:35;;;;;;;143.77;76.03;;;;;;;;;;5013271;28;20545;-81
2021/12/25 09:09:01;;;;;;;142.30;76.97;;;;;;;;;;5031935;28;20402;-81
2021/12/25 09:11:27;;;;;;;140.03;75.37;;;;;;;;;;5028895;28;21323;-80
2021/12/25 09:13:53;;;;;;;131.80;71.17;;;;;;;;;;5028976;28;20437;-80
2021/12/25 09:16:19;;;;;;;132.77;72.73;;;;;;;;;;5011102;28;21380;-80
2021/12/25 09:18:46;;;;;;;131.13;72.67;;;;;;;;;;5009727;28;21454;-81
2021/12/25 09:21:13;;;;;;;144.30;75.30;;;;;;;;;;5030120;28;20425;-80
2021/12/25 09:23:39;;;;;;;135.40;75.17;;;;;;;;;;5025079;28;20455;-80
2021/12/25 09:26:05;;;;;;;135.23;74.63;;;;;;;;;;5014517;28;20422;-80
2021/12/25 09:28:31;;;;;;;128.07;71.47;;;;;;;;;;5028484;28;20406;-81
2021/12/25 09:30:58;;;;;;;132.27;71.83;;;;;;;;;;5028933;28;20551;-81
2021/12/25 09:33:24;;;;;;;125.93;70.30;;;;;;;;;;5028379;28;20537;-81
2021/12/25 09:35:50;;;;;;;134.83;73.70;;;;;;;;;;5016103;28;20407;-81
2021/12/25 09:38:16;;;;;;;142.97;76.10;;;;;;;;;;5027532;28;21353;-81
2021/12/25 09:40:42;;;;;;;128.30;72.67;;;;;;;;;;5009350;28;20529;-82
2021/12/25 09:43:08;;;;;;;129.30;70.50;;;;;;;;;;5013834;28;20613;-80
2021/12/25 09:45:34;;;;;;;131.87;72.83;;;;;;;;;;5025937;28;20427;-80
2021/12/25 09:48:01;;;;;;;133.97;76.47;;;;;;;;;;5014178;28;20415;-81
2021/12/25 09:50:27;;;;;;;131.13;73.13;;;;;;;;;;5010545;28;21220;-80
2021/12/25 09:52:53;;;;;;;138.53;76.00;;;;;;;;;;5014494;28;20426;-80
2021/12/25 09:55:19;;;;;;;135.00;74.73;;;;;;;;;;5012171;28;20479;-80
2021/12/25 09:57:46;;;;;;;133.17;74.40;;;;;;;;;;5010447;28;20414;-81
2021/12/25 10:00:14;;;;;;;134.20;74.67;;;;;;;;;;5024258;28;20425;-81
2021/12/25 10:02:45;;;;;;;127.53;71.67;;;;;;;;;;5021351;28;20439;-81
2021/12/25 10:05:11;;;;;;;147.17;74.80;;;;;;;;;;5006191;28;20422;-82
2021/12/25 10:07:37;;;;;;;137.47;76.33;;;;;;;;;;5008567;28;20420;-81
2021/12/25 10:10:05;;;;;;;135.73;73.43;;;;;;;;;;5020326;28;20428;-81
2021/12/25 10:12:41;;;;;;;137.03;75.63;;;;;;;;;;5022054;28;20419;-81
2021/12/25 10:15:09;;;;;;;139.43;74.83;;;;;;;;;;5024125;28;20420;-81
2021/12/25 10:17:43;;;;;;;135.67;74.63;;;;;;;;;;5024803;28;20433;-81
2021/12/25 10:20:13;;;;;;;139.00;74.90;;;;;;;;;;5011925;28;20441;-81
2021/12/25 10:23:02;;;;;;;136.77;74.70;;;;;;;;;;5009441;28;20414;-81
2021/12/25 10:25:42;;;;;;;;;;;;;;;;;;;;;
2021/12/25 10:28:10;;;;;;;137.57;76.17;;;;;;;;;;5028431;28;20434;-81
2021/12/25 10:30:45;;;;;;;133.57;74.23;;;;;;;;;;5025773;28;20423;-81
2021/12/25 10:33:27;;;;;;;140.07;76.17;;;;;;;;;;5009918;28;20442;-81
2021/12/25 10:35:53;;;;;;;136.23;74.07;;;;;;;;;;5010946;28;20422;-82
2021/12/25 10:38:21;;;;;;;135.80;73.47;;;;;;;;;;5020042;28;20529;-81
2021/12/25 10:40:48;;;;;;;137.90;74.57;;;;;;;;;;5011252;28;20431;-81
2021/12/25 10:43:21;;;;;;;128.07;69.73;;;;;;;;;;5011253;28;20454;-81
2021/12/25 10:46:01;;;;;;;136.00;74.87;;;;;;;;;;5008934;28;20432;-81
2021/12/25 10:48:31;;;;;;;137.20;74.13;;;;;;;;;;5008498;28;20520;-81
2021/12/25 10:50:58;;;;;;;144.30;77.03;;;;;;;;;;5025185;28;20542;-82
2021/12/25 10:53:28;;;;;;;136.83;73.67;;;;;;;;;;5022085;28;20446;-81
2021/12/25 10:56:04;;;;;;;136.07;73.67;;;;;;;;;;5008432;28;20446;-81
2021/12/25 10:58:30;;;;;;;140.90;76.17;;;;;;;;;;5009020;28;20445;-81
2021/12/25 11:00:57;;;;;;;136.97;73.47;;;;;;;;;;5020731;28;20720;-80
2021/12/25 11:03:33;;;;;;;141.77;77.23;;;;;;;;;;5007755;28;20457;-80
2021/12/25 11:06:05;;;;;;;142.27;77.97;;;;;;;;;;5022722;28;20420;-80
2021/12/25 11:08:32;;;;;;;144.67;79.83;;;;;;;;;;5025421;28;20415;-81
2021/12/25 11:11:01;;;;;;;136.00;75.77;;;;;;;;;;5010846;28;20425;-80
2021/12/25 11:13:27;;;;;;;133.77;75.90;;;;;;;;;;5011702;28;20689;-80
2021/12/25 11:16:04;;;;;;;131.87;74.33;;;;;;;;;;5008812;28;20435;-82
2021/12/25 11:18:31;;;;;;;144.83;80.63;;;;;;;;;;5003111;28;20485;-81
2021/12/25 11:20:59;;;;;;;147.17;81.50;;;;;;;;;;5002784;28;20427;-82
2021/12/25 11:23:28;;;;;;;130.17;72.33;;;;;;;;;;5019897;28;21333;-81
2021/12/25 11:25:54;;;;;;;137.13;75.00;;;;;;;;;;5025301;28;20422;-81
2021/12/25 11:28:20;;;;;;;130.83;74.63;;;;;;;;;;5010154;28;20423;-81
2021/12/25 11:30:50;;;;;;;144.63;77.73;;;;;;;;;;5005316;28;20522;-82
2021/12/25 11:33:20;;;;;;;137.73;74.80;;;;;;;;;;5021601;28;21205;-82
2021/12/25 11:35:46;;;;;;;137.30;78.00;;;;;;;;;;5019464;28;21600;-79
2021/12/25 11:38:13;;;;;;;143.60;78.27;;;;;;;;;;5022866;28;20426;-79
2021/12/25 11:40:47;;;;;;;133.13;75.87;;;;;;;;;;5007132;28;20584;-80
2021/12/25 11:43:13;;;;;;;131.90;75.43;;;;;;;;;;5010108;28;20468;-80
2021/12/25 11:45:41;;;;;;;139.37;77.67;;;;;;;;;;5021556;28;21063;-80
2021/12/25 11:48:15;;;;;;;144.70;81.83;;;;;;;;;;5021537;28;21076;-80
2021/12/25 11:50:43;;;;;;;148.43;79.60;;;;;;;;;;5009625;28;20511;-80
2021/12/25 11:53:43;;;;;;;135.30;79.90;;;;;;;;;;5020443;28;21087;-81
2021/12/25 11:58:39;;;;;;;147.33;80.83;;;;;;;;;;5025241;28;20451;-80
2021/12/25 12:01:23;;;;;;;144.07;77.23;;;;;;;;;;5022128;28;20492;-81
2021/12/25 12:04:08;;;;;;;146.70;82.33;;;;;;;;;;5025496;28;20457;-81
2021/12/25 12:06:47;;;;;;;141.67;77.10;;;;;;;;;;5008276;28;20438;-80
2021/12/25 12:09:17;;;;;;;144.80;79.53;;;;;;;;;;5025731;28;20494;-80
2021/12/25 12:11:45;;;;;;;144.77;80.10;;;;;;;;;;5024384;28;20423;-80
2021/12/25 12:14:28;;;;;;;139.93;76.90;;;;;;;;;;5023427;28;20446;-80
2021/12/25 12:16:55;;;;;;;145.27;79.20;;;;;;;;;;5023408;28;20510;-80
2021/12/25 12:19:35;;;;;;;154.30;83.80;;;;;;;;;;5024097;28;20430;-80
2021/12/25 12:27:36;;;;;;;152.50;81.27;;;;;;;;;;5028027;28;20434;-81
2021/12/25 12:30:04;;;;;;;149.27;81.90;;;;;;;;;;5011796;28;21246;-81
2021/12/25 12:32:43;;;;;;;161.50;84.83;;;;;;;;;;5015141;28;20438;-80
2021/12/25 12:35:41;;;;;;;140.70;78.07;;;;;;;;;;5029368;28;20981;-80
2021/12/25 12:38:27;;;;;;;146.63;81.80;;;;;;;;;;4987950;28;20481;-80
2021/12/25 12:41:11;;;;;;;156.27;84.13;;;;;;;;;;5030728;28;20405;-80
2021/12/25 12:44:03;;;;;;;138.10;78.77;;;;;;;;;;5029823;28;20553;-81
2021/12/25 12:46:48;;;;;;;160.50;83.63;;;;;;;;;;5023286;28;20508;-81
2021/12/25 12:49:16;;;;;;;149.53;80.93;;;;;;;;;;5025244;28;21264;-80
2021/12/25 12:51:42;;;;;;;156.97;87.10;;;;;;;;;;5029891;28;20402;-81
2021/12/25 12:54:08;;;;;;;155.67;85.80;;;;;;;;;;5025292;28;21399;-82
2021/12/25 12:56:36;;;;;;;163.33;87.53;;;;;;;;;;5028355;28;20503;-80
2021/12/25 12:59:03;;;;;;;150.63;81.20;;;;;;;;;;5029327;28;20561;-81
2021/12/25 13:01:29;;;;;;;142.67;81.00;;;;;;;;;;5014278;28;20476;-82
2021/12/25 13:04:00;;;;;;;157.53;85.50;;;;;;;;;;5029949;28;20458;-83
2021/12/25 13:06:28;;;;;;;147.53;80.57;;;;;;;;;;5014807;28;20426;-82
2021/12/25 13:08:54;;;;;;;156.33;84.60;;;;;;;;;;5028423;28;21322;-82
2021/12/25 13:14:59;;;;;;;152.47;84.60;;;;;;;;;;5033923;28;20920;-82
2021/12/25 13:17:26;;;;;;;157.03;83.87;;;;;;;;;;5030460;28;20438;-81
2021/12/25 13:19:52;;;;;;;144.53;80.87;;;;;;;;;;5014219;28;20426;-81
2021/12/25 13:22:20;;;;;;;148.70;78.57;;;;;;;;;;5014570;28;20414;-81
2021/12/25 13:24:52;;;;;;;157.17;86.37;;;;;;;;;;5010057;28;20466;-81
2021/12/25 13:27:19;;;;;;;164.63;90.40;;;;;;;;;;5024270;28;20427;-81
2021/12/25 13:29:45;;;;;;;158.73;85.30;;;;;;;;;;5012922;28;20539;-81
2021/12/25 13:32:11;;;;;;;150.27;80.80;;;;;;;;;;5012992;28;20565;-81
2021/12/25 13:34:39;;;;;;;144.67;81.97;;;;;;;;;;5013345;28;20415;-81
2021/12/25 13:37:13;;;;;;;169.03;91.60;;;;;;;;;;5011421;28;20460;-81
2021/12/25 13:39:41;;;;;;;152.67;84.07;;;;;;;;;;5029266;28;21210;-82
2021/12/25 13:42:08;;;;;;;172.60;92.57;;;;;;;;;;5012123;28;21392;-82
2021/12/25 13:44:36;;;;;;;158.93;86.90;;;;;;;;;;5008136;28;21149;-79
2021/12/25 13:47:03;;;;;;;160.83;89.07;;;;;;;;;;5027885;28;20481;-80
2021/12/25 13:49:33;;;;;;;158.93;85.53;;;;;;;;;;5020611;28;20423;-80
2021/12/25 13:52:01;;;;;;;155.37;85.47;;;;;;;;;;5014437;28;20446;-80
2021/12/25 13:54:27;;;;;;;151.77;84.70;;;;;;;;;;5030578;28;20816;-81
2021/12/25 13:56:54;;;;;;;146.90;82.13;;;;;;;;;;5030060;28;20415;-81
2021/12/25 13:59:23;;;;;;;137.07;77.90;;;;;;;;;;5017611;28;20455;-81
2021/12/25 14:02:19;;;;;;;152.93;81.47;;;;;;;;;;5029608;28;20427;-81
2021/12/25 14:04:46;;;;;;;141.73;77.07;;;;;;;;;;5010952;28;21365;-80
2021/12/25 14:07:15;;;;;;;145.17;80.63;;;;;;;;;;5027811;28;20422;-80
2021/12/25 14:09:52;;;;;;;147.87;81.57;;;;;;;;;;5028579;28;21248;-81
2021/12/25 14:12:21;;;;;;;144.80;78.17;;;;;;;;;;5014567;28;20426;-81
2021/12/25 14:14:47;;;;;;;149.13;81.50;;;;;;;;;;5013575;28;20431;-81
2021/12/25 14:17:13;;;;;;;148.40;82.90;;;;;;;;;;5029792;28;20423;-81
2021/12/25 14:19:40;;;;;;;151.77;82.97;;;;;;;;;;5026147;28;20425;-81
2021/12/25 14:22:06;;;;;;;144.47;81.00;;;;;;;;;;5013777;28;21241;-81
2021/12/25 14:24:43;;;;;;;151.93;84.33;;;;;;;;;;5030363;28;20458;-82
2021/12/25 14:27:13;;;;;;;165.13;87.40;;;;;;;;;;5028407;28;20415;-81
2021/12/25 14:29:40;;;;;;;152.47;83.97;;;;;;;;;;5030449;28;20414;-81
2021/12/25 14:32:17;;;;;;;155.33;84.47;;;;;;;;;;5025685;28;21409;-82
2021/12/25 14:34:43;;;;;;;173.80;92.53;;;;;;;;;;5021669;28;20442;-82
2021/12/25 14:37:10;;;;;;;170.23;91.00;;;;;;;;;;5015125;28;20426;-81
2021/12/25 14:39:36;;;;;;;152.80;84.23;;;;;;;;;;5014455;28;20532;-81
2021/12/25 14:42:12;;;;;;;190.03;98.00;;;;;;;;;;5014129;28;21201;-81
2021/12/25 14:44:43;;;;;;;194.50;99.87;;;;;;;;;;5026399;28;20848;-81
2021/12/25 14:47:11;;;;;;;189.83;96.90;;;;;;;;;;5028753;28;20427;-81
2021/12/25 14:49:38;;;;;;;197.50;102.30;;;;;;;;;;5026386;28;21258;-81
2021/12/25 14:52:04;;;;;;;202.33;101.97;;;;;;;;;;5028392;28;20433;-81
2021/12/25 14:54:31;;;;;;;210.67;105.53;;;;;;;;;;5027877;28;20419;-81
2021/12/25 14:56:58;;;;;;;194.07;99.57;;;;;;;;;;5014620;28;20433;-81
2021/12/25 14:59:25;;;;;;;203.10;102.80;;;;;;;;;;5027905;28;20431;-81
2021/12/25 15:01:54;;;;;;;181.47;94.73;;;;;;;;;;5016401;28;20434;-81
2021/12/25 15:04:22;;;;;;;196.13;99.20;;;;;;;;;;5025556;28;20458;-81
2021/12/25 15:06:55;;;;;;;188.87;98.43;;;;;;;;;;5025565;28;20450;-81
2021/12/25 15:09:30;;;;;;;219.70;106.90;;;;;;;;;;5010996;28;20784;-81
2021/12/25 15:12:02;;;;;;;224.27;109.33;;;;;;;;;;5024740;28;20452;-81
2021/12/25 15:14:30;;;;;;;215.33;106.77;;;;;;;;;;5026246;28;20523;-81
2021/12/25 15:17:05;;;;;;;229.47;112.67;;;;;;;;;;5033034;28;21283;-82
2021/12/25 15:19:33;;;;;;;232.83;112.97;;;;;;;;;;5025538;28;20755;-82
2021/12/25 15:22:04;;;;;;;216.33;110.77;;;;;;;;;;5016783;28;20427;-83
2021/12/25 15:24:30;;;;;;;228.57;114.53;;;;;;;;;;5027474;28;21114;-83
2021/12/25 15:26:59;;;;;;;224.17;109.43;;;;;;;;;;5025670;28;20878;-83
2021/12/25 15:29:38;;;;;;;192.10;103.97;;;;;;;;;;5015172;28;20513;-81
2021/12/25 15:32:07;;;;;;;202.97;103.73;;;;;;;;;;5024377;28;20980;-82
2021/12/25 15:34:33;;;;;;;238.03;113.10;;;;;;;;;;5008993;28;20446;-82
2021/12/25 15:37:00;;;;;;;250.00;117.67;;;;;;;;;;5009296;28;21038;-82
2021/12/25 15:39:32;;;;;;;222.20;110.03;;;;;;;;;;5006854;28;20877;-83
2021/12/25 15:42:01;;;;;;;251.90;117.53;;;;;;;;;;5026876;28;20438;-83
2021/12/25 15:44:28;;;;;;;260.97;120.73;;;;;;;;;;5023839;28;20465;-81
2021/12/25 15:46:54;;;;;;;224.97;112.33;;;;;;;;;;5022900;28;20541;-82